createdAt,value
2022-09-06T00:02:35.070Z,98175.00
2022-09-06T00:05:12.330Z,98175.00
2022-09-06T00:07:47.183Z,98173.00
2022-09-06T00:10:22.045Z,98171.00
2022-09-06T00:13:02.181Z,98172.00
2022-09-06T00:15:37.611Z,98173.00
2022-09-06T00:18:12.471Z,98165.00
2022-09-06T00:20:47.330Z,98169.00
2022-09-06T00:23:22.219Z,98166.00
2022-09-06T00:26:05.118Z,98169.00
2022-09-06T00:28:40.167Z,98167.00
2022-09-06T00:31:24.609Z,98166.00
2022-09-06T00:33:59.651Z,98157.00
2022-09-06T00:36:34.685Z,98167.00
2022-09-06T00:39:09.538Z,98169.00
2022-09-06T00:41:44.572Z,98175.00
2022-09-06T00:44:19.633Z,98167.00
2022-09-06T00:46:55.370Z,98167.00
2022-09-06T00:49:39.150Z,98164.00
2022-09-06T00:52:18.265Z,98163.00
2022-09-06T00:54:54.213Z,98152.00
2022-09-06T00:57:32.023Z,98155.00
2022-09-06T01:00:09.602Z,98161.00
2022-09-06T01:02:44.624Z,98168.00
2022-09-06T01:05:20.988Z,98171.00
2022-09-06T01:08:16.857Z,98172.00
2022-09-06T01:11:09.395Z,98169.00
2022-09-06T01:14:28.928Z,98164.00
2022-09-06T01:17:11.205Z,98168.00
2022-09-06T01:20:28.527Z,98167.00
2022-09-06T01:23:29.553Z,98174.00
2022-09-06T01:26:35.443Z,98184.00
2022-09-06T01:29:23.737Z,98190.00
2022-09-06T01:32:15.352Z,98185.00
2022-09-06T01:35:07.277Z,98194.00
2022-09-06T01:37:42.462Z,98190.00
2022-09-06T01:40:17.456Z,98189.00
2022-09-06T01:42:53.417Z,98190.00
2022-09-06T01:45:56.789Z,98188.00
2022-09-06T01:49:03.609Z,98195.00
2022-09-06T01:52:10.541Z,98202.00
2022-09-06T01:55:11.926Z,98199.00
2022-09-06T01:58:21.591Z,98199.00
2022-09-06T02:01:30.624Z,98197.00
2022-09-06T02:04:57.395Z,98187.00
2022-09-06T02:07:34.955Z,98195.00
2022-09-06T02:10:27.363Z,98193.00
2022-09-06T02:13:06.228Z,98208.00
2022-09-06T02:15:52.688Z,98237.00
2022-09-06T02:18:35.305Z,98313.00
2022-09-06T02:21:15.506Z,98294.00
2022-09-06T02:23:53.465Z,98298.00
2022-09-06T02:26:33.217Z,98280.00
2022-09-06T02:29:08.583Z,98272.00
2022-09-06T02:31:56.665Z,98264.00
2022-09-06T02:34:31.776Z,98269.00
2022-09-06T02:37:07.914Z,98261.00
2022-09-06T02:39:43.047Z,98261.00
2022-09-06T02:42:18.141Z,98280.00
2022-09-06T02:44:53.145Z,98295.00
2022-09-06T02:47:28.039Z,98289.00
2022-09-06T02:50:03.663Z,98280.00
2022-09-06T02:52:38.634Z,98282.00
2022-09-06T02:55:13.635Z,98273.00
2022-09-06T02:57:48.928Z,98262.00
2022-09-06T03:00:24.352Z,98246.00
2022-09-06T03:02:59.649Z,98241.00
2022-09-06T03:05:34.735Z,98223.00
2022-09-06T03:08:09.753Z,98218.00
2022-09-06T03:10:56.321Z,98200.00
2022-09-06T03:13:31.310Z,98202.00
2022-09-06T03:16:06.348Z,98205.00
2022-09-06T03:18:41.814Z,98204.00
2022-09-06T03:21:16.844Z,98202.00
2022-09-06T03:23:52.444Z,98199.00
2022-09-06T03:26:28.176Z,98196.00
2022-09-06T03:29:03.125Z,98199.00
2022-09-06T03:31:38.104Z,98218.00
2022-09-06T03:34:13.098Z,98213.00
2022-09-06T03:36:48.084Z,98206.00
2022-09-06T03:39:23.083Z,98217.00
2022-09-06T03:41:58.048Z,98208.00
2022-09-06T03:44:33.051Z,98216.00
2022-09-06T03:47:07.989Z,98224.00
2022-09-06T03:49:43.091Z,98222.00
2022-09-06T03:52:18.094Z,98226.00
2022-09-06T03:54:53.087Z,98206.00
2022-09-06T03:57:28.047Z,98216.00
2022-09-06T04:00:04.260Z,98219.00
2022-09-06T04:02:46.484Z,98222.00
2022-09-06T04:05:21.417Z,98227.00
2022-09-06T04:07:56.420Z,98228.00
2022-09-06T04:10:32.092Z,98221.00
2022-09-06T04:13:07.050Z,98217.00
2022-09-06T04:15:47.462Z,98215.00
2022-09-06T04:18:23.588Z,98219.00
2022-09-06T04:20:59.054Z,98210.00
2022-09-06T04:23:37.756Z,98219.00
2022-09-06T04:26:15.031Z,98215.00
2022-09-06T04:28:50.071Z,98214.00
2022-09-06T04:31:25.028Z,98226.00
2022-09-06T04:33:59.999Z,98234.00
2022-09-06T04:36:35.056Z,98228.00
2022-09-06T04:39:10.089Z,98228.00
2022-09-06T04:41:45.153Z,98216.00
2022-09-06T04:44:20.288Z,98214.00
2022-09-06T04:47:18.063Z,98206.00
2022-09-06T04:49:53.700Z,98209.00
2022-09-06T04:52:30.333Z,98218.00
2022-09-06T04:55:06.241Z,98214.00
2022-09-06T04:57:45.785Z,98214.00
2022-09-06T05:00:22.565Z,98220.00
2022-09-06T05:02:58.166Z,98231.00
2022-09-06T05:05:33.627Z,98232.00
2022-09-06T05:14:35.638Z,98229.00
2022-09-06T05:17:10.680Z,98226.00
2022-09-06T05:19:45.830Z,98241.00
2022-09-06T05:22:21.165Z,98242.00
2022-09-06T05:24:56.462Z,98242.00
2022-09-06T05:27:31.669Z,98242.00
2022-09-06T05:30:07.440Z,98241.00
2022-09-06T05:32:42.517Z,98242.00
2022-09-06T05:35:17.578Z,98244.00
2022-09-06T05:37:52.580Z,98244.00
2022-09-06T05:40:27.761Z,98253.00
2022-09-06T05:43:02.771Z,98250.00
2022-09-06T05:45:39.132Z,98248.00
2022-09-06T05:48:14.354Z,98243.00
2022-09-06T05:51:01.487Z,98253.00
2022-09-06T05:53:45.356Z,98245.00
2022-09-06T05:56:20.659Z,98236.00
2022-09-06T05:58:55.677Z,98232.00
2022-09-06T06:01:32.740Z,98236.00
2022-09-06T06:04:08.621Z,98242.00
2022-09-06T06:06:43.589Z,98243.00
2022-09-06T06:09:18.828Z,98244.00
2022-09-06T06:11:57.723Z,98249.00
2022-09-06T06:14:32.813Z,98258.00
2022-09-06T06:17:07.905Z,98263.00
2022-09-06T06:19:43.005Z,98263.00
2022-09-06T06:22:18.042Z,98256.00
2022-09-06T06:24:53.073Z,98258.00
2022-09-06T06:27:28.071Z,98258.00
2022-09-06T06:30:03.834Z,98248.00
2022-09-06T06:32:40.438Z,98253.00
2022-09-06T06:35:15.512Z,98255.00
2022-09-06T06:37:50.466Z,98248.00
2022-09-06T06:40:25.465Z,98252.00
2022-09-06T06:43:01.540Z,98254.00
2022-09-06T06:45:36.758Z,98264.00
2022-09-06T06:48:12.243Z,98270.00
2022-09-06T06:50:47.673Z,98271.00
2022-09-06T06:53:22.776Z,98268.00
2022-09-06T06:55:57.827Z,98267.00
2022-09-06T06:58:32.821Z,98265.00
2022-09-06T07:01:08.013Z,98267.00
2022-09-06T07:03:44.016Z,98258.00
2022-09-06T07:06:19.991Z,98250.00
2022-09-06T07:08:58.341Z,98250.00
2022-09-06T07:11:33.311Z,98246.00
2022-09-06T07:14:08.959Z,98238.00
2022-09-06T07:16:44.486Z,98250.00
2022-09-06T07:22:14.534Z,98245.00
2022-09-06T07:24:49.554Z,98246.00
2022-09-06T07:30:20.308Z,98250.00
2022-09-06T07:32:55.477Z,98253.00
2022-09-06T07:35:30.532Z,98249.00
2022-09-06T07:38:05.573Z,98247.00
2022-09-06T07:40:40.592Z,98247.00
2022-09-06T07:43:15.615Z,98243.00
2022-09-06T07:46:00.297Z,98248.00
2022-09-06T07:48:37.968Z,98250.00
2022-09-06T07:51:19.579Z,98250.00
2022-09-06T07:54:19.224Z,98258.00
2022-09-06T07:56:53.498Z,98258.00
2022-09-06T07:59:28.577Z,98249.00
2022-09-06T08:02:03.697Z,98243.00
2022-09-06T08:04:38.806Z,98236.00
2022-09-06T08:10:09.261Z,98224.00
2022-09-06T08:12:44.297Z,98223.00
2022-09-06T08:15:19.329Z,98218.00
2022-09-06T08:17:54.350Z,98222.00
2022-09-06T08:20:29.321Z,98223.00
2022-09-06T08:23:10.389Z,98228.00
2022-09-06T08:25:45.399Z,98232.00
2022-09-06T08:28:20.426Z,98226.00
2022-09-06T08:30:55.600Z,98226.00
2022-09-06T08:33:31.049Z,98213.00
2022-09-06T08:36:07.821Z,98220.00
2022-09-06T08:38:43.120Z,98228.00
2022-09-06T08:41:27.569Z,98226.00
2022-09-06T08:47:14.648Z,98222.00
2022-09-06T08:49:57.523Z,98221.00
2022-09-06T08:53:16.832Z,98215.00
2022-09-06T08:56:00.031Z,98216.00
2022-09-06T08:58:56.828Z,98225.00
2022-09-06T09:02:01.846Z,98216.00
2022-09-06T09:04:43.437Z,98205.00
2022-09-06T09:07:43.540Z,98204.00
2022-09-06T09:10:29.962Z,98214.00
2022-09-06T09:13:07.994Z,98202.00
2022-09-06T09:15:43.101Z,98197.00
2022-09-06T09:18:25.772Z,98194.00
2022-09-06T09:21:00.828Z,98186.00
2022-09-06T09:23:36.297Z,98189.00
2022-09-06T09:26:15.602Z,98196.00
2022-09-06T09:29:14.362Z,98192.00
2022-09-06T09:31:54.057Z,98197.00
2022-09-06T09:34:35.790Z,98199.00
2022-09-06T09:40:26.188Z,98195.00
2022-09-06T09:43:25.001Z,98193.00
2022-09-06T09:46:15.006Z,98195.00
2022-09-06T09:49:22.513Z,98196.00
2022-09-06T09:52:12.329Z,98190.00
2022-09-06T09:54:47.862Z,98193.00
2022-09-06T09:57:24.035Z,98189.00
2022-09-06T10:00:02.723Z,98193.00
2022-09-06T10:02:41.999Z,98186.00
2022-09-06T10:05:20.483Z,98188.00
2022-09-06T10:07:57.717Z,98197.00
2022-09-06T10:10:46.810Z,98190.00
2022-09-06T10:13:31.295Z,98189.00
2022-09-06T10:16:07.139Z,98179.00
2022-09-06T10:18:44.498Z,98175.00
2022-09-06T10:21:22.277Z,98174.00
2022-09-06T10:24:30.436Z,98182.00
2022-09-06T10:27:06.865Z,98179.00
2022-09-06T10:30:11.261Z,98174.00
2022-09-06T10:33:00.763Z,98175.00
2022-09-06T10:35:38.619Z,98172.00
2022-09-06T10:38:30.500Z,98169.00
2022-09-06T10:41:30.839Z,98162.00
2022-09-06T10:44:18.551Z,98171.00
2022-09-06T10:47:09.074Z,98164.00
2022-09-06T10:49:55.290Z,98155.00
2022-09-06T10:52:38.935Z,98162.00
2022-09-06T10:55:17.756Z,98168.00
2022-09-06T11:00:55.285Z,98162.00
2022-09-06T11:04:01.898Z,98151.00
2022-09-06T11:06:53.215Z,98155.00
2022-09-06T11:09:52.187Z,98149.00
2022-09-06T11:12:38.445Z,98145.00
2022-09-06T11:15:17.056Z,98142.00
2022-09-06T11:18:03.895Z,98146.00
2022-09-06T11:20:53.929Z,98142.00
2022-09-06T11:23:42.917Z,98140.00
2022-09-06T11:27:06.696Z,98145.00
2022-09-06T11:29:45.706Z,98145.00
2022-09-06T11:32:48.563Z,98143.00
2022-09-06T11:35:34.874Z,98146.00
2022-09-06T11:38:15.999Z,98149.00
2022-09-06T11:41:14.464Z,98146.00
2022-09-06T11:43:51.722Z,98149.00
2022-09-06T11:46:35.960Z,98144.00
2022-09-06T11:49:34.620Z,98135.00
2022-09-06T11:53:12.803Z,98132.00
2022-09-06T11:55:59.921Z,98144.00
2022-09-06T11:59:03.591Z,98134.00
2022-09-06T12:01:40.907Z,98132.00
2022-09-06T12:04:15.875Z,98129.00
2022-09-06T12:07:12.118Z,98128.00
2022-09-06T12:09:47.028Z,98127.00
2022-09-06T12:12:50.796Z,98115.00
2022-09-06T12:15:32.504Z,98118.00
2022-09-06T12:18:07.565Z,98121.00
2022-09-06T12:20:48.581Z,98132.00
2022-09-06T12:23:35.714Z,98136.00
2022-09-06T12:26:12.304Z,98132.00
2022-09-06T12:28:52.593Z,98132.00
2022-09-06T12:31:54.569Z,98132.00
2022-09-06T12:34:33.830Z,98131.00
2022-09-06T12:37:11.068Z,98128.00
2022-09-06T12:39:59.087Z,98133.00
2022-09-06T12:42:37.882Z,98136.00
2022-09-06T12:45:12.988Z,98138.00
2022-09-06T12:47:48.738Z,98136.00
2022-09-06T12:50:26.007Z,98139.00
2022-09-06T12:53:03.917Z,98139.00
2022-09-06T12:55:39.213Z,98136.00
2022-09-06T12:58:14.313Z,98135.00
2022-09-06T13:00:53.071Z,98123.00
2022-09-06T13:03:54.036Z,98111.00
2022-09-06T13:06:32.264Z,98124.00
2022-09-06T13:09:13.146Z,98121.00
2022-09-06T13:11:51.522Z,98126.00
2022-09-06T13:14:30.269Z,98126.00
2022-09-06T13:17:05.330Z,98126.00
2022-09-06T13:19:42.635Z,98123.00
2022-09-06T13:22:49.316Z,98120.00
2022-09-06T13:25:26.200Z,98118.00
2022-09-06T13:28:02.420Z,98117.00
2022-09-06T13:30:45.842Z,98126.00
2022-09-06T13:33:26.203Z,98121.00
2022-09-06T13:36:24.646Z,98108.00
2022-09-06T13:39:03.544Z,98108.00
2022-09-06T13:41:41.258Z,98100.00
2022-09-06T13:44:16.228Z,98103.00
2022-09-06T13:46:55.324Z,98102.00
2022-09-06T13:49:31.788Z,98093.00
2022-09-06T13:52:08.203Z,98094.00
2022-09-06T13:54:43.336Z,98085.00
2022-09-06T13:57:24.194Z,98085.00
2022-09-06T14:00:02.553Z,98077.00
2022-09-06T14:02:41.645Z,98068.00
2022-09-06T14:05:19.172Z,98079.00
2022-09-06T14:07:54.271Z,98068.00
2022-09-06T14:10:29.394Z,98065.00
2022-09-06T14:13:06.926Z,98060.00
2022-09-06T14:15:42.326Z,98044.00
2022-09-06T14:18:17.747Z,98051.00
2022-09-06T14:20:56.167Z,98049.00
2022-09-06T14:23:31.847Z,98057.00
2022-09-06T14:26:06.955Z,98050.00
2022-09-06T14:28:42.109Z,98045.00
2022-09-06T14:31:20.903Z,98063.00
2022-09-06T14:33:57.153Z,98070.00
2022-09-06T14:36:34.574Z,98081.00
2022-09-06T14:39:09.629Z,98082.00
2022-09-06T14:41:44.630Z,98075.00
2022-09-06T14:44:20.204Z,98067.00
2022-09-06T14:47:00.013Z,98074.00
2022-09-06T14:49:34.994Z,98082.00
2022-09-06T14:52:09.983Z,98081.00
2022-09-06T14:54:45.017Z,98092.00
2022-09-06T14:57:20.028Z,98096.00
2022-09-06T14:59:55.225Z,98103.00
2022-09-06T15:02:30.186Z,98094.00
2022-09-06T15:05:06.085Z,98086.00
2022-09-06T15:07:41.225Z,98081.00
2022-09-06T15:10:16.403Z,98072.00
2022-09-06T15:12:51.428Z,98065.00
2022-09-06T15:15:26.478Z,98062.00
2022-09-06T15:18:01.500Z,98055.00
2022-09-06T15:20:36.743Z,98053.00
2022-09-06T15:23:27.312Z,98050.00
2022-09-06T15:26:02.245Z,98050.00
2022-09-06T15:28:39.330Z,98032.00
2022-09-06T15:31:15.149Z,98026.00
2022-09-06T15:33:51.273Z,98018.00
2022-09-06T15:36:29.947Z,98022.00
2022-09-06T15:39:05.912Z,98021.00
2022-09-06T15:41:41.576Z,98017.00
2022-09-06T15:44:19.494Z,98002.00
2022-09-06T15:46:59.935Z,98005.00
2022-09-06T15:49:36.322Z,98015.00
2022-09-06T15:52:12.277Z,98018.00
2022-09-06T15:55:05.683Z,98017.00
2022-09-06T15:57:40.686Z,98017.00
2022-09-06T16:00:17.857Z,98016.00
2022-09-06T16:02:53.434Z,98025.00
2022-09-06T16:08:23.501Z,98011.00
2022-09-06T16:10:59.547Z,98010.00
2022-09-06T16:13:36.621Z,98000.00
2022-09-06T16:16:15.165Z,97998.00
2022-09-06T16:18:51.869Z,97996.00
2022-09-06T16:21:32.042Z,97990.00
2022-09-06T16:24:10.351Z,97989.00
2022-09-06T16:26:49.001Z,97989.00
2022-09-06T16:29:24.169Z,97972.00
2022-09-06T16:32:00.568Z,97978.00
2022-09-06T16:34:37.899Z,97977.00
2022-09-06T16:37:12.928Z,97977.00
2022-09-06T16:39:48.091Z,97964.00
2022-09-06T16:42:23.267Z,97964.00
2022-09-06T16:44:58.655Z,97966.00
2022-09-06T16:47:33.560Z,97971.00
2022-09-06T16:50:09.162Z,97975.00
2022-09-06T16:52:44.125Z,97980.00
2022-09-06T16:55:19.243Z,97968.00
2022-09-06T16:57:54.192Z,97972.00
2022-09-06T17:00:29.680Z,97973.00
2022-09-06T17:03:04.767Z,97972.00
2022-09-06T17:05:39.743Z,97962.00
2022-09-06T17:08:14.817Z,97967.00
2022-09-06T17:10:50.249Z,97968.00
2022-09-06T17:13:25.251Z,97972.00
2022-09-06T17:16:22.146Z,97974.00
2022-09-06T17:18:59.903Z,97972.00
2022-09-06T17:21:35.552Z,97968.00
2022-09-06T17:24:10.658Z,97969.00
2022-09-06T17:26:45.627Z,97974.00
2022-09-06T17:29:21.465Z,97963.00
2022-09-06T17:31:56.544Z,97965.00
2022-09-06T17:34:31.554Z,97961.00
2022-09-06T17:37:07.561Z,97956.00
2022-09-06T17:39:42.598Z,97958.00
2022-09-06T17:42:17.937Z,97956.00
2022-09-06T17:44:52.889Z,97944.00
2022-09-06T17:47:28.147Z,97939.00
2022-09-06T17:50:03.328Z,97944.00
2022-09-06T17:52:38.378Z,97946.00
2022-09-06T17:55:13.360Z,97947.00
2022-09-06T17:57:48.394Z,97943.00
2022-09-06T18:00:26.123Z,97940.00
2022-09-06T18:03:01.126Z,97946.00
2022-09-06T18:05:40.242Z,97939.00
2022-09-06T18:08:15.213Z,97941.00
2022-09-06T18:10:50.552Z,97939.00
2022-09-06T18:13:25.594Z,97941.00
2022-09-06T18:16:03.433Z,97941.00
2022-09-06T18:18:38.755Z,97943.00
2022-09-06T18:21:14.096Z,97939.00
2022-09-06T18:23:49.608Z,97946.00
2022-09-06T18:26:32.113Z,97950.00
2022-09-06T18:29:14.966Z,97950.00
2022-09-06T18:31:53.538Z,97948.00
2022-09-06T18:34:28.701Z,97939.00
2022-09-06T18:37:04.988Z,97945.00
2022-09-06T18:39:42.385Z,97940.00
2022-09-06T18:42:17.470Z,97951.00
2022-09-06T18:44:52.521Z,97958.00
2022-09-06T18:47:27.591Z,97958.00
2022-09-06T18:50:06.499Z,97969.00
2022-09-06T18:52:47.915Z,97969.00
2022-09-06T18:55:23.319Z,97961.00
2022-09-06T18:57:58.359Z,97967.00
2022-09-06T19:00:33.603Z,97965.00
2022-09-06T19:03:08.773Z,97972.00
2022-09-06T19:05:43.813Z,97971.00
2022-09-06T19:08:19.231Z,97975.00
2022-09-06T19:11:07.574Z,97978.00
2022-09-06T19:13:44.228Z,97975.00
2022-09-06T19:16:22.298Z,97967.00
2022-09-06T19:19:07.049Z,97950.00
2022-09-06T19:21:42.793Z,97956.00
2022-09-06T19:24:18.094Z,97959.00
2022-09-06T19:26:55.201Z,97964.00
2022-09-06T19:29:30.258Z,97958.00
2022-09-06T19:32:06.325Z,97952.00
2022-09-06T19:34:41.403Z,97955.00
2022-09-06T19:37:20.530Z,97952.00
2022-09-06T19:39:55.994Z,97947.00
2022-09-06T19:42:31.032Z,97949.00
2022-09-06T19:45:06.988Z,97952.00
2022-09-06T19:47:41.933Z,97953.00
2022-09-06T19:50:17.111Z,97956.00
2022-09-06T19:52:52.037Z,97950.00
2022-09-06T19:55:35.213Z,97957.00
2022-09-06T19:58:10.199Z,97959.00
2022-09-06T20:00:45.384Z,97951.00
2022-09-06T20:03:21.114Z,97949.00
2022-09-06T20:05:58.309Z,97948.00
2022-09-06T20:08:34.809Z,97946.00
2022-09-06T20:11:12.614Z,97943.00
2022-09-06T20:13:47.737Z,97939.00
2022-09-06T20:16:24.950Z,97943.00
2022-09-06T20:19:00.497Z,97934.00
2022-09-06T20:21:35.497Z,97933.00
2022-09-06T20:24:10.758Z,97933.00
2022-09-06T20:26:45.754Z,97924.00
2022-09-06T20:29:20.772Z,97924.00
2022-09-06T20:31:55.863Z,97916.00
2022-09-06T20:34:31.021Z,97922.00
2022-09-06T20:37:06.015Z,97919.00
2022-09-06T20:39:41.045Z,97916.00
2022-09-06T20:42:16.180Z,97912.00
2022-09-06T20:44:51.176Z,97914.00
2022-09-06T20:47:28.339Z,97925.00
2022-09-06T20:50:03.448Z,97928.00
2022-09-06T20:52:38.498Z,97935.00
2022-09-06T20:55:14.608Z,97936.00
2022-09-06T20:57:49.599Z,97929.00
2022-09-06T21:00:24.636Z,97933.00
2022-09-06T21:02:59.819Z,97934.00
2022-09-06T21:05:34.752Z,97937.00
2022-09-06T21:08:10.362Z,97946.00
2022-09-06T21:10:45.581Z,97951.00
2022-09-06T21:13:20.567Z,97950.00
2022-09-06T21:15:56.406Z,97944.00
2022-09-06T21:18:32.795Z,97947.00
2022-09-06T21:21:08.584Z,97945.00
2022-09-06T21:23:43.607Z,97937.00
2022-09-06T21:26:18.970Z,97940.00
2022-09-06T21:28:54.398Z,97936.00
2022-09-06T21:31:36.273Z,97939.00
2022-09-06T21:34:16.829Z,97940.00
2022-09-06T21:36:52.279Z,97941.00
2022-09-06T21:39:27.283Z,97944.00
2022-09-06T21:42:02.343Z,97943.00
2022-09-06T21:44:37.390Z,97938.00
2022-09-06T21:47:12.376Z,97935.00
2022-09-06T21:49:47.378Z,97928.00
2022-09-06T21:52:23.639Z,97933.00
2022-09-06T21:54:59.378Z,97928.00
2022-09-06T21:57:34.342Z,97926.00
2022-09-06T22:00:10.013Z,97936.00
2022-09-06T22:02:44.989Z,97937.00
2022-09-06T22:05:19.900Z,97932.00
2022-09-06T22:07:55.047Z,97932.00
2022-09-06T22:10:29.942Z,97926.00
2022-09-06T22:13:05.015Z,97930.00
2022-09-06T22:15:40.467Z,97933.00
2022-09-06T22:18:15.405Z,97937.00
2022-09-06T22:20:50.335Z,97930.00
2022-09-06T22:23:25.404Z,97930.00
2022-09-06T22:26:10.920Z,97936.00
2022-09-06T22:28:46.142Z,97950.00
2022-09-06T22:31:21.578Z,97944.00
2022-09-06T22:33:57.234Z,97946.00
2022-09-06T22:36:32.675Z,97948.00
2022-09-06T22:39:07.991Z,97949.00
2022-09-06T22:41:42.955Z,97945.00
2022-09-06T22:44:18.578Z,97939.00
2022-09-06T22:46:54.000Z,97934.00
2022-09-06T22:49:28.951Z,97938.00
2022-09-06T22:52:03.878Z,97935.00
2022-09-06T22:54:39.940Z,97930.00
2022-09-06T22:57:14.887Z,97932.00
2022-09-06T22:59:49.775Z,97933.00
2022-09-06T23:02:24.663Z,97918.00
2022-09-06T23:04:59.666Z,97917.00
2022-09-06T23:07:34.613Z,97910.00
2022-09-06T23:10:10.055Z,97913.00
2022-09-06T23:12:44.994Z,97918.00
2022-09-06T23:15:19.919Z,97912.00
2022-09-06T23:17:54.804Z,97903.00
2022-09-06T23:20:29.786Z,97891.00
2022-09-06T23:23:07.240Z,97902.00
2022-09-06T23:25:42.092Z,97899.00
2022-09-06T23:28:16.950Z,97897.00
2022-09-06T23:30:51.806Z,97893.00
2022-09-06T23:33:26.718Z,97895.00
2022-09-06T23:36:01.964Z,97896.00
2022-09-06T23:38:39.557Z,97901.00
2022-09-06T23:41:14.760Z,97901.00
2022-09-06T23:43:49.938Z,97902.00
2022-09-06T23:46:24.997Z,97896.00
2022-09-06T23:48:59.922Z,97899.00
2022-09-06T23:51:34.836Z,97895.00
2022-09-06T23:54:09.684Z,97904.00
2022-09-06T23:56:44.550Z,97904.00
2022-09-06T23:59:19.409Z,97898.00
